createdAt,value
2023-09-26T00:00:23.925Z,19.60
2023-09-26T00:02:53.186Z,19.60
2023-09-26T00:05:21.407Z,19.60
2023-09-26T00:07:52.412Z,19.60
2023-09-26T00:10:20.692Z,19.60
2023-09-26T00:12:48.314Z,19.60
2023-09-26T00:15:15.449Z,19.60
2023-09-26T00:17:42.762Z,19.50
2023-09-26T00:20:11.686Z,19.60
2023-09-26T00:22:38.908Z,19.50
2023-09-26T00:25:07.026Z,19.50
2023-09-26T00:27:34.117Z,19.50
2023-09-26T00:30:01.167Z,19.50
2023-09-26T00:32:28.187Z,19.50
2023-09-26T00:34:55.190Z,19.50
2023-09-26T00:37:22.287Z,19.50
2023-09-26T00:39:49.410Z,19.50
2023-09-26T00:42:16.712Z,19.40
2023-09-26T00:44:43.652Z,19.40
2023-09-26T00:47:11.613Z,19.40
2023-09-26T00:49:38.714Z,19.40
2023-09-26T00:52:06.466Z,19.40
2023-09-26T00:54:34.341Z,19.40
2023-09-26T00:57:02.614Z,19.40
2023-09-26T00:59:30.649Z,19.40
2023-09-26T01:01:59.003Z,19.40
2023-09-26T01:04:26.144Z,19.40
2023-09-26T01:06:53.128Z,19.40
2023-09-26T01:09:20.228Z,19.40
2023-09-26T01:11:47.331Z,19.40
2023-09-26T01:14:14.361Z,19.30
2023-09-26T01:16:42.835Z,19.40
2023-09-26T01:19:10.090Z,19.30
2023-09-26T01:21:37.068Z,19.30
2023-09-26T01:24:04.196Z,19.30
2023-09-26T01:26:37.932Z,19.30
2023-09-26T01:29:06.080Z,19.40
2023-09-26T01:31:37.166Z,19.30
2023-09-26T01:34:04.960Z,19.30
2023-09-26T01:36:33.148Z,19.30
2023-09-26T01:39:00.372Z,19.40
2023-09-26T01:41:28.628Z,19.30
2023-09-26T01:43:55.831Z,19.30
2023-09-26T01:46:22.934Z,19.30
2023-09-26T01:48:50.642Z,19.30
2023-09-26T01:51:17.938Z,19.30
2023-09-26T01:53:45.113Z,19.30
2023-09-26T01:56:12.206Z,19.40
2023-09-26T01:58:39.239Z,19.30
2023-09-26T02:01:07.093Z,19.30
2023-09-26T02:03:34.473Z,19.30
2023-09-26T02:06:01.892Z,19.30
2023-09-26T02:08:29.206Z,19.30
2023-09-26T02:10:56.479Z,19.30
2023-09-26T02:13:23.684Z,19.30
2023-09-26T02:15:51.610Z,19.30
2023-09-26T02:18:18.721Z,19.30
2023-09-26T02:20:45.663Z,19.30
2023-09-26T02:23:12.881Z,19.30
2023-09-26T02:25:40.476Z,19.30
2023-09-26T02:28:07.553Z,19.30
2023-09-26T02:30:34.549Z,19.30
2023-09-26T02:33:01.660Z,19.30
2023-09-26T02:35:28.757Z,19.40
2023-09-26T02:37:57.900Z,19.30
2023-09-26T02:40:25.231Z,19.30
2023-09-26T02:42:52.993Z,19.20
2023-09-26T02:45:20.108Z,19.30
2023-09-26T02:47:47.713Z,19.30
2023-09-26T02:50:15.262Z,19.30
2023-09-26T02:52:44.362Z,19.30
2023-09-26T02:55:12.295Z,19.30
2023-09-26T02:57:39.469Z,19.30
2023-09-26T03:00:13.873Z,19.30
2023-09-26T03:02:41.191Z,19.30
2023-09-26T03:05:10.736Z,19.30
2023-09-26T03:07:38.732Z,19.30
2023-09-26T03:10:06.588Z,19.30
2023-09-26T03:12:33.642Z,19.30
2023-09-26T03:15:00.698Z,19.30
2023-09-26T03:17:27.713Z,19.30
2023-09-26T03:19:54.674Z,19.20
2023-09-26T03:22:21.662Z,19.30
2023-09-26T03:24:48.711Z,19.20
2023-09-26T03:27:15.657Z,19.30
2023-09-26T03:29:43.391Z,19.30
2023-09-26T03:32:10.346Z,19.30
2023-09-26T03:34:37.360Z,19.30
2023-09-26T03:37:04.332Z,19.30
2023-09-26T03:39:31.526Z,19.30
2023-09-26T03:41:58.495Z,19.30
2023-09-26T03:44:25.429Z,19.30
2023-09-26T03:46:52.618Z,19.30
2023-09-26T03:49:19.714Z,19.30
2023-09-26T03:51:46.647Z,19.30
2023-09-26T03:54:13.645Z,19.30
2023-09-26T03:56:40.606Z,19.30
2023-09-26T03:59:09.054Z,19.30
2023-09-26T04:01:36.131Z,19.30
2023-09-26T04:04:03.828Z,19.30
2023-09-26T04:06:33.255Z,19.30
2023-09-26T04:09:01.037Z,19.30
2023-09-26T04:11:28.045Z,19.30
2023-09-26T04:13:55.068Z,19.30
2023-09-26T04:16:22.184Z,19.30
2023-09-26T04:18:49.580Z,19.30
2023-09-26T04:21:16.908Z,19.30
2023-09-26T04:23:43.927Z,19.30
2023-09-26T04:26:14.986Z,19.40
2023-09-26T04:28:46.047Z,19.40
2023-09-26T04:31:14.067Z,19.30
2023-09-26T04:33:41.767Z,19.30
2023-09-26T04:36:09.074Z,19.30
2023-09-26T04:38:36.455Z,19.40
2023-09-26T04:41:06.440Z,19.30
2023-09-26T04:43:33.707Z,19.30
2023-09-26T04:46:01.608Z,19.30
2023-09-26T04:48:28.595Z,19.30
2023-09-26T04:50:55.745Z,19.30
2023-09-26T04:53:23.421Z,19.30
2023-09-26T04:55:50.920Z,19.40
2023-09-26T04:58:18.308Z,19.30
2023-09-26T05:00:45.592Z,19.40
2023-09-26T05:03:12.679Z,19.30
2023-09-26T05:05:39.748Z,19.40
2023-09-26T05:08:07.052Z,19.30
2023-09-26T05:10:38.672Z,19.30
2023-09-26T05:13:07.253Z,19.30
2023-09-26T05:15:36.142Z,19.40
2023-09-26T05:18:04.171Z,19.40
2023-09-26T05:20:31.414Z,19.40
2023-09-26T05:23:01.096Z,19.40
2023-09-26T05:25:28.820Z,19.40
2023-09-26T05:27:56.353Z,19.50
2023-09-26T05:30:23.472Z,19.50
2023-09-26T05:32:50.556Z,19.50
2023-09-26T05:35:17.723Z,19.50
2023-09-26T05:37:45.558Z,19.50
2023-09-26T05:40:12.970Z,19.50
2023-09-26T05:42:41.035Z,19.50
2023-09-26T05:45:10.266Z,19.50
2023-09-26T05:47:37.770Z,19.60
2023-09-26T05:50:05.218Z,19.60
2023-09-26T05:52:32.536Z,19.60
2023-09-26T05:54:59.655Z,19.60
2023-09-26T05:57:29.502Z,19.60
2023-09-26T05:59:56.531Z,19.60
2023-09-26T06:02:23.645Z,19.50
2023-09-26T06:04:51.835Z,19.60
2023-09-26T06:07:19.144Z,19.60
2023-09-26T06:10:00.998Z,19.70
2023-09-26T06:12:33.164Z,19.70
2023-09-26T06:15:00.289Z,19.70
2023-09-26T06:17:27.575Z,19.70
2023-09-26T06:19:56.323Z,19.70
2023-09-26T06:22:23.416Z,19.70
2023-09-26T06:24:50.512Z,19.80
2023-09-26T06:27:17.544Z,19.80
2023-09-26T06:29:44.670Z,19.80
2023-09-26T06:32:11.750Z,19.80
2023-09-26T06:34:40.964Z,19.90
2023-09-26T06:37:08.374Z,19.90
2023-09-26T06:39:35.484Z,20.00
2023-09-26T06:42:03.042Z,20.00
2023-09-26T06:44:30.625Z,20.00
2023-09-26T06:46:58.030Z,20.00
2023-09-26T06:49:25.187Z,20.10
2023-09-26T06:51:52.953Z,20.10
2023-09-26T06:54:19.992Z,20.10
2023-09-26T06:56:47.058Z,20.10
2023-09-26T06:59:14.105Z,20.10
2023-09-26T07:01:41.276Z,20.10
2023-09-26T07:04:15.312Z,20.10
2023-09-26T07:06:42.877Z,20.10
2023-09-26T07:09:11.371Z,20.10
2023-09-26T07:11:38.371Z,20.10
2023-09-26T07:14:06.223Z,20.10
2023-09-26T07:16:35.112Z,20.20
2023-09-26T07:19:02.949Z,20.20
2023-09-26T07:21:30.102Z,20.20
2023-09-26T07:23:58.044Z,20.30
2023-09-26T07:26:25.935Z,20.30
2023-09-26T07:28:54.846Z,20.30
2023-09-26T07:31:22.662Z,20.30
2023-09-26T07:33:51.293Z,20.30
2023-09-26T07:36:18.581Z,20.30
2023-09-26T07:38:45.620Z,20.30
2023-09-26T07:41:12.815Z,20.30
2023-09-26T07:43:40.909Z,20.40
2023-09-26T07:46:10.605Z,20.50
2023-09-26T07:48:39.140Z,20.50
2023-09-26T07:51:07.935Z,20.50
2023-09-26T07:53:36.040Z,20.50
2023-09-26T07:56:03.449Z,20.50
2023-09-26T07:58:30.399Z,20.50
2023-09-26T08:01:00.425Z,20.60
2023-09-26T08:03:27.934Z,20.60
2023-09-26T08:06:05.440Z,20.60
2023-09-26T08:08:33.052Z,20.70
2023-09-26T08:11:29.608Z,20.70
2023-09-26T08:13:57.652Z,20.70
2023-09-26T08:16:25.098Z,20.80
2023-09-26T08:18:52.306Z,20.80
2023-09-26T08:21:19.422Z,20.90
2023-09-26T08:23:46.440Z,20.90
2023-09-26T08:26:13.502Z,20.90
2023-09-26T08:28:40.998Z,21.00
2023-09-26T08:31:11.331Z,21.00
2023-09-26T08:33:38.973Z,21.00
2023-09-26T08:36:19.654Z,21.10
2023-09-26T08:38:48.584Z,21.10
2023-09-26T08:41:21.706Z,21.10
2023-09-26T08:43:49.393Z,21.10
2023-09-26T08:46:17.940Z,21.10
2023-09-26T08:48:46.377Z,21.20
2023-09-26T08:51:14.240Z,21.20
2023-09-26T08:53:41.320Z,21.20
2023-09-26T08:56:08.397Z,21.30
2023-09-26T08:58:36.130Z,21.30
2023-09-26T09:01:04.362Z,21.30
2023-09-26T09:03:31.784Z,21.40
2023-09-26T09:05:58.790Z,21.40
2023-09-26T09:08:26.069Z,21.40
2023-09-26T09:10:55.784Z,21.40
2023-09-26T09:13:30.195Z,21.40
2023-09-26T09:16:16.838Z,21.50
2023-09-26T09:18:53.133Z,21.50
2023-09-26T09:21:28.948Z,21.50
2023-09-26T09:24:00.722Z,21.50
2023-09-26T09:26:34.130Z,21.50
2023-09-26T09:29:30.886Z,21.50
2023-09-26T09:31:58.377Z,21.60
2023-09-26T09:34:28.648Z,21.50
2023-09-26T09:36:57.699Z,21.50
2023-09-26T09:39:25.166Z,21.60
2023-09-26T09:41:58.494Z,21.60
2023-09-26T09:44:26.176Z,21.70
2023-09-26T09:47:00.137Z,21.70
2023-09-26T09:49:32.352Z,21.70
2023-09-26T09:52:05.695Z,21.70
2023-09-26T09:54:34.836Z,21.70
2023-09-26T09:57:08.022Z,21.70
2023-09-26T09:59:38.021Z,21.70
2023-09-26T10:02:07.561Z,21.70
2023-09-26T10:04:36.724Z,21.70
2023-09-26T10:07:03.871Z,21.80
2023-09-26T10:09:33.817Z,21.80
2023-09-26T10:12:03.108Z,21.80
2023-09-26T10:14:33.375Z,21.80
2023-09-26T10:17:03.934Z,21.90
2023-09-26T10:19:47.057Z,21.90
2023-09-26T10:22:22.718Z,21.80
2023-09-26T10:24:54.172Z,21.80
2023-09-26T10:27:47.363Z,21.80
2023-09-26T10:30:25.357Z,21.90
2023-09-26T10:32:56.263Z,21.90
2023-09-26T10:35:26.191Z,21.90
2023-09-26T10:38:08.142Z,21.90
2023-09-26T10:40:35.232Z,21.90
2023-09-26T10:43:33.038Z,21.90
2023-09-26T10:45:50.944Z,21.90
2023-09-26T10:48:22.212Z,21.90
2023-09-26T10:50:49.987Z,21.90
2023-09-26T10:53:18.465Z,22.00
2023-09-26T10:55:46.115Z,21.90
2023-09-26T10:58:21.882Z,22.00
2023-09-26T11:00:54.015Z,22.00
2023-09-26T11:03:22.449Z,22.00
2023-09-26T11:08:37.934Z,22.00
2023-09-26T11:11:05.044Z,22.00
2023-09-26T11:13:32.189Z,22.00
2023-09-26T11:15:59.232Z,22.00
2023-09-26T11:18:26.868Z,22.00
2023-09-26T11:21:02.711Z,22.00
2023-09-26T11:23:41.137Z,22.00
2023-09-26T11:26:09.551Z,22.00
2023-09-26T11:28:37.157Z,22.00
2023-09-26T11:31:04.581Z,22.00
2023-09-26T11:33:32.274Z,22.00
2023-09-26T11:35:59.375Z,22.00
2023-09-26T11:38:26.401Z,22.10
2023-09-26T11:40:56.572Z,22.10
2023-09-26T11:43:23.711Z,22.10
2023-09-26T11:46:06.185Z,22.10
2023-09-26T11:48:33.429Z,22.10
2023-09-26T11:51:00.981Z,22.10
2023-09-26T11:53:30.810Z,22.10
2023-09-26T11:55:59.415Z,22.10
2023-09-26T11:58:27.862Z,22.10
2023-09-26T12:00:55.629Z,22.10
2023-09-26T12:03:22.722Z,22.10
2023-09-26T12:05:50.343Z,22.10
2023-09-26T12:08:17.338Z,22.10
2023-09-26T12:10:44.595Z,22.10
2023-09-26T12:13:12.181Z,22.20
2023-09-26T12:15:39.545Z,22.10
2023-09-26T12:18:06.874Z,22.20
2023-09-26T12:20:35.062Z,22.20
2023-09-26T12:23:03.333Z,22.20
2023-09-26T12:25:31.424Z,22.20
2023-09-26T12:27:58.756Z,22.20
2023-09-26T12:30:26.002Z,22.20
2023-09-26T12:32:53.393Z,22.20
2023-09-26T12:35:20.687Z,22.20
2023-09-26T12:37:47.982Z,22.20
2023-09-26T12:40:15.290Z,22.20
2023-09-26T12:42:43.664Z,22.20
2023-09-26T12:45:11.778Z,22.20
2023-09-26T12:47:39.507Z,22.20
2023-09-26T12:50:10.575Z,22.20
2023-09-26T12:52:40.635Z,22.20
2023-09-26T12:55:09.039Z,22.20
2023-09-26T12:57:36.558Z,22.20
2023-09-26T13:00:08.299Z,22.20
2023-09-26T13:02:35.593Z,22.20
2023-09-26T13:05:03.188Z,22.20
2023-09-26T13:07:30.746Z,22.20
2023-09-26T13:09:57.904Z,22.20
2023-09-26T13:12:25.718Z,22.20
2023-09-26T13:14:53.014Z,22.20
2023-09-26T13:17:20.433Z,22.20
2023-09-26T13:19:47.570Z,22.20
2023-09-26T13:22:15.372Z,22.20
2023-09-26T13:24:46.179Z,22.20
2023-09-26T13:27:13.265Z,22.20
2023-09-26T13:29:40.361Z,22.20
2023-09-26T13:32:07.821Z,22.30
2023-09-26T13:34:35.057Z,22.20
2023-09-26T13:37:02.240Z,22.20
2023-09-26T13:39:29.898Z,22.20
2023-09-26T13:41:57.116Z,22.20
2023-09-26T13:44:24.137Z,22.20
2023-09-26T13:46:51.225Z,22.20
2023-09-26T13:49:18.426Z,22.20
2023-09-26T13:51:45.445Z,22.20
2023-09-26T13:54:13.716Z,22.20
2023-09-26T13:56:40.771Z,22.20
2023-09-26T13:59:07.941Z,22.20
2023-09-26T14:01:36.682Z,22.20
2023-09-26T14:04:04.363Z,22.20
2023-09-26T14:06:31.531Z,22.30
2023-09-26T14:08:58.662Z,22.30
2023-09-26T14:11:26.285Z,22.30
2023-09-26T14:13:53.356Z,22.30
2023-09-26T14:16:20.527Z,22.30
2023-09-26T14:18:47.680Z,22.30
2023-09-26T14:21:19.001Z,22.30
2023-09-26T14:23:46.097Z,22.40
2023-09-26T14:26:13.579Z,22.40
2023-09-26T14:28:45.161Z,22.40
2023-09-26T14:31:12.758Z,22.40
2023-09-26T14:33:41.493Z,22.40
2023-09-26T14:36:08.858Z,22.30
2023-09-26T14:38:35.944Z,22.30
2023-09-26T14:41:03.115Z,22.30
2023-09-26T14:43:30.613Z,22.30
2023-09-26T14:45:57.669Z,22.30
2023-09-26T14:48:24.734Z,22.30
2023-09-26T14:50:51.827Z,22.30
2023-09-26T14:53:19.293Z,22.40
2023-09-26T14:55:46.451Z,22.30
2023-09-26T14:58:13.455Z,22.30
2023-09-26T15:00:44.665Z,22.30
2023-09-26T15:03:12.360Z,22.30
2023-09-26T15:05:39.808Z,22.30
2023-09-26T15:08:07.202Z,22.30
2023-09-26T15:10:35.237Z,22.30
2023-09-26T15:13:02.377Z,22.30
2023-09-26T15:15:30.783Z,22.30
2023-09-26T15:17:58.712Z,22.30
2023-09-26T15:20:27.010Z,22.30
2023-09-26T15:22:54.298Z,22.40
2023-09-26T15:25:21.490Z,22.30
2023-09-26T15:27:48.558Z,22.40
2023-09-26T15:30:15.875Z,22.40
2023-09-26T15:32:45.001Z,22.40
2023-09-26T15:35:12.174Z,22.30
2023-09-26T15:37:39.136Z,22.30
2023-09-26T15:40:07.416Z,22.30
2023-09-26T15:42:35.164Z,22.30
2023-09-26T15:45:03.880Z,22.40
2023-09-26T15:47:31.331Z,22.30
2023-09-26T15:49:58.500Z,22.30
2023-09-26T15:52:25.632Z,22.30
2023-09-26T15:54:53.052Z,22.30
2023-09-26T15:57:20.191Z,22.30
2023-09-26T15:59:49.090Z,22.30
2023-09-26T16:02:16.428Z,22.30
2023-09-26T16:04:44.203Z,22.30
2023-09-26T16:07:11.479Z,22.40
2023-09-26T16:09:39.132Z,22.40
2023-09-26T16:12:07.292Z,22.40
2023-09-26T16:14:34.877Z,22.40
2023-09-26T16:17:02.260Z,22.50
2023-09-26T16:19:29.394Z,22.40
2023-09-26T16:21:56.432Z,22.40
2023-09-26T16:24:23.412Z,22.50
2023-09-26T16:26:50.430Z,22.50
2023-09-26T16:29:17.581Z,22.50
2023-09-26T16:31:44.680Z,22.50
2023-09-26T16:34:11.729Z,22.50
2023-09-26T16:36:38.754Z,22.50
2023-09-26T16:39:05.957Z,22.40
2023-09-26T16:41:33.171Z,22.40
2023-09-26T16:44:00.362Z,22.40
2023-09-26T16:46:28.202Z,22.40
2023-09-26T16:48:55.468Z,22.50
2023-09-26T16:51:22.666Z,22.50
2023-09-26T16:53:57.015Z,22.40
2023-09-26T16:56:24.296Z,22.40
2023-09-26T16:58:53.527Z,22.40
2023-09-26T17:01:20.915Z,22.40
2023-09-26T17:03:49.814Z,22.40
2023-09-26T17:06:17.089Z,22.50
2023-09-26T17:08:44.313Z,22.40
2023-09-26T17:11:11.928Z,22.40
2023-09-26T17:13:39.932Z,22.40
2023-09-26T17:16:07.219Z,22.40
2023-09-26T17:18:34.356Z,22.40
2023-09-26T17:21:01.464Z,22.40
2023-09-26T17:23:29.024Z,22.40
2023-09-26T17:25:56.438Z,22.40
2023-09-26T17:28:23.718Z,22.40
2023-09-26T17:30:53.570Z,22.40
2023-09-26T17:33:20.720Z,22.40
2023-09-26T17:35:47.745Z,22.40
2023-09-26T17:38:14.916Z,22.40
2023-09-26T17:40:42.054Z,22.40
2023-09-26T17:43:09.200Z,22.40
2023-09-26T17:45:37.086Z,22.30
2023-09-26T17:48:04.528Z,22.30
2023-09-26T17:50:31.689Z,22.30
2023-09-26T17:52:58.726Z,22.30
2023-09-26T17:55:25.762Z,22.30
2023-09-26T17:57:52.700Z,22.30
2023-09-26T18:00:19.632Z,22.30
2023-09-26T18:02:46.562Z,22.30
2023-09-26T18:05:13.876Z,22.20
2023-09-26T18:07:41.101Z,22.30
2023-09-26T18:10:09.399Z,22.20
2023-09-26T18:12:37.252Z,22.20
2023-09-26T18:15:05.099Z,22.20
2023-09-26T18:17:32.637Z,22.20
2023-09-26T18:20:00.429Z,22.20
2023-09-26T18:22:28.185Z,22.20
2023-09-26T18:24:55.224Z,22.10
2023-09-26T18:27:22.850Z,22.10
2023-09-26T18:29:50.548Z,22.10
2023-09-26T18:32:17.743Z,22.10
2023-09-26T18:34:45.129Z,22.00
2023-09-26T18:37:12.450Z,22.00
2023-09-26T18:39:39.939Z,22.00
2023-09-26T18:42:07.451Z,22.00
2023-09-26T18:44:37.656Z,22.00
2023-09-26T18:47:05.211Z,22.00
2023-09-26T18:49:32.432Z,22.00
2023-09-26T18:51:59.881Z,22.00
2023-09-26T18:54:26.915Z,21.90
2023-09-26T18:56:54.537Z,22.00
2023-09-26T18:59:21.905Z,21.90
2023-09-26T19:01:49.032Z,21.90
2023-09-26T19:04:16.830Z,21.90
2023-09-26T19:06:44.159Z,21.90
2023-09-26T19:09:11.691Z,21.80
2023-09-26T19:11:43.405Z,21.90
2023-09-26T19:14:10.495Z,21.80
2023-09-26T19:16:37.462Z,21.90
2023-09-26T19:19:06.044Z,21.80
2023-09-26T19:21:34.530Z,21.80
2023-09-26T19:24:01.861Z,21.80
2023-09-26T19:26:29.097Z,21.80
2023-09-26T19:28:57.405Z,21.80
2023-09-26T19:31:24.608Z,21.80
2023-09-26T19:33:51.915Z,21.70
2023-09-26T19:36:18.829Z,21.70
2023-09-26T19:38:45.806Z,21.70
2023-09-26T19:41:12.869Z,21.70
2023-09-26T19:43:39.974Z,21.70
2023-09-26T19:46:07.074Z,21.60
2023-09-26T19:48:34.693Z,21.70
2023-09-26T19:51:01.771Z,21.70
2023-09-26T19:53:28.762Z,21.60
2023-09-26T19:55:56.082Z,21.70
2023-09-26T19:58:23.153Z,21.60
2023-09-26T20:00:50.177Z,21.60
2023-09-26T20:03:17.350Z,21.60
2023-09-26T20:05:44.523Z,21.60
2023-09-26T20:08:11.688Z,21.60
2023-09-26T20:10:38.717Z,21.60
2023-09-26T20:13:06.211Z,21.60
2023-09-26T20:15:33.739Z,21.60
2023-09-26T20:18:00.865Z,21.60
2023-09-26T20:20:28.004Z,21.50
2023-09-26T20:22:55.200Z,21.50
2023-09-26T20:25:22.382Z,21.50
2023-09-26T20:27:53.370Z,21.50
2023-09-26T20:30:21.891Z,21.50
2023-09-26T20:32:49.008Z,21.40
2023-09-26T20:35:16.205Z,21.40
2023-09-26T20:37:43.250Z,21.30
2023-09-26T20:40:13.292Z,21.30
2023-09-26T20:42:40.511Z,21.20
2023-09-26T20:45:08.948Z,21.20
2023-09-26T20:47:36.064Z,21.20
2023-09-26T20:50:03.500Z,21.20
2023-09-26T20:52:35.893Z,21.20
2023-09-26T20:55:02.919Z,21.20
2023-09-26T20:57:30.529Z,21.20
2023-09-26T20:59:57.778Z,21.10
2023-09-26T21:02:24.870Z,21.10
2023-09-26T21:04:51.980Z,21.10
2023-09-26T21:07:19.111Z,21.10
2023-09-26T21:09:46.134Z,21.10
2023-09-26T21:12:14.110Z,21.10
2023-09-26T21:14:43.794Z,21.10
2023-09-26T21:17:10.986Z,21.00
2023-09-26T21:19:37.988Z,21.00
2023-09-26T21:22:04.931Z,21.00
2023-09-26T21:24:32.161Z,21.00
2023-09-26T21:26:59.204Z,20.90
2023-09-26T21:29:26.839Z,20.90
2023-09-26T21:31:54.026Z,20.80
2023-09-26T21:34:21.106Z,20.80
2023-09-26T21:36:48.043Z,20.80
2023-09-26T21:39:15.102Z,20.80
2023-09-26T21:41:42.217Z,20.70
2023-09-26T21:44:09.442Z,20.80
2023-09-26T21:46:36.642Z,20.70
2023-09-26T21:49:03.758Z,20.70
2023-09-26T21:51:30.839Z,20.70
2023-09-26T21:53:57.812Z,20.60
2023-09-26T21:56:24.871Z,20.60
2023-09-26T21:58:52.227Z,20.60
2023-09-26T22:01:21.221Z,20.60
2023-09-26T22:03:48.508Z,20.60
2023-09-26T22:06:15.831Z,20.60
2023-09-26T22:08:43.029Z,20.60
2023-09-26T22:11:10.079Z,20.50
2023-09-26T22:13:37.074Z,20.50
2023-09-26T22:16:04.183Z,20.50
2023-09-26T22:18:31.332Z,20.50
2023-09-26T22:20:58.363Z,20.50
2023-09-26T22:23:26.662Z,20.40
2023-09-26T22:25:53.961Z,20.40
2023-09-26T22:28:21.144Z,20.40
2023-09-26T22:30:48.065Z,20.40
2023-09-26T22:33:15.571Z,20.40
2023-09-26T22:35:42.648Z,20.30
2023-09-26T22:38:09.788Z,20.30
2023-09-26T22:40:48.980Z,20.30
2023-09-26T22:43:19.640Z,20.30
2023-09-26T22:45:47.255Z,20.30
2023-09-26T22:48:14.640Z,20.20
2023-09-26T22:50:41.728Z,20.20
2023-09-26T22:53:08.755Z,20.20
2023-09-26T22:55:35.820Z,20.20
2023-09-26T22:58:02.881Z,20.20
2023-09-26T23:00:30.446Z,20.20
2023-09-26T23:02:57.827Z,20.20
2023-09-26T23:05:24.957Z,20.20
2023-09-26T23:07:51.959Z,20.20
2023-09-26T23:10:19.099Z,20.20
2023-09-26T23:12:46.113Z,20.10
2023-09-26T23:15:13.116Z,20.10
2023-09-26T23:17:40.145Z,20.20
2023-09-26T23:20:09.771Z,20.10
2023-09-26T23:22:37.195Z,20.10
2023-09-26T23:25:10.897Z,20.10
2023-09-26T23:27:39.135Z,20.10
2023-09-26T23:30:13.525Z,20.10
2023-09-26T23:32:45.069Z,20.10
2023-09-26T23:35:20.210Z,20.00
2023-09-26T23:37:49.798Z,20.00
2023-09-26T23:40:18.119Z,20.00
2023-09-26T23:42:45.236Z,20.00
2023-09-26T23:45:14.376Z,20.00
2023-09-26T23:47:42.254Z,20.00
2023-09-26T23:50:11.827Z,20.00
2023-09-26T23:52:40.241Z,20.00
2023-09-26T23:55:09.891Z,20.00
2023-09-26T23:57:37.834Z,20.00
